Time;durP1;ratioP1;P1;durP2;ratioP2;P2;SDS_P1;SDS_P2;PMS_P1;PMS_P2;Temp;Humidity;BMP_temperature;BMP_pressure;BME280_temperature;BME280_humidity;BME280_pressure;Samples;Min_cycle;Max_cycle;Signal;HPM_P1;HPM_P2
2022/10/06 00:01:17;;;;;;;5.43;1.20;;;;;;;13.29;100.00;101832.78;5025966;28;20037;-84
2022/10/06 00:03:44;;;;;;;7.05;1.08;;;;;;;13.26;100.00;101840.38;5060606;28;20029;-84
2022/10/06 00:06:14;;;;;;;11.65;1.48;;;;;;;13.22;100.00;101845.25;5038117;28;20031;-85
2022/10/06 00:08:41;;;;;;;12.18;1.00;;;;;;;13.27;100.00;101855.91;5040515;28;20028;-85
2022/10/06 00:11:11;;;;;;;11.77;1.02;;;;;;;13.21;100.00;101851.72;5038819;28;20041;-84
2022/10/06 00:13:36;;;;;;;7.47;1.08;;;;;;;13.12;100.00;101850.53;5037364;28;20590;-85
2022/10/06 00:16:07;;;;;;;12.40;1.40;;;;;;;13.13;100.00;101867.91;5022752;28;20045;-85
2022/10/06 00:18:32;;;;;;;6.43;2.13;;;;;;;13.21;100.00;101876.47;5068979;28;20036;-84
2022/10/06 00:21:00;;;;;;;16.05;1.20;;;;;;;13.20;100.00;101883.84;5039530;28;20033;-84
2022/10/06 00:23:27;;;;;;;11.00;1.10;;;;;;;13.09;100.00;101883.75;5039758;28;20040;-85
2022/10/06 00:25:53;;;;;;;11.55;1.10;;;;;;;13.01;100.00;101889.81;5053838;28;20040;-84
2022/10/06 00:28:18;;;;;;;15.02;1.20;;;;;;;12.98;100.00;101887.28;5038121;28;20025;-84
2022/10/06 00:30:45;;;;;;;10.20;1.35;;;;;;;13.04;100.00;101897.84;5037385;28;20029;-85
2022/10/06 00:33:13;;;;;;;11.27;1.55;;;;;;;12.98;100.00;101897.41;5021789;28;20079;-83
2022/10/06 00:35:39;;;;;;;13.23;1.88;;;;;;;12.96;100.00;101905.78;5054686;28;20481;-83
2022/10/06 00:38:04;;;;;;;11.23;1.20;;;;;;;12.97;100.00;101913.03;5025095;28;20112;-83
2022/10/06 00:40:30;;;;;;;5.63;1.25;;;;;;;12.90;100.00;101902.59;5052551;28;20022;-84
2022/10/06 00:43:02;;;;;;;12.30;1.45;;;;;;;12.81;100.00;101902.25;5037940;28;20029;-85
2022/10/06 00:45:30;;;;;;;13.25;0.95;;;;;;;12.86;100.00;101924.78;5037549;28;20092;-84
2022/10/06 00:48:01;;;;;;;10.50;0.93;;;;;;;12.83;100.00;101913.16;5040919;28;20025;-84
2022/10/06 00:50:27;;;;;;;10.40;1.27;;;;;;;12.85;100.00;101924.91;5036074;28;20037;-84
2022/10/06 00:52:54;;;;;;;7.72;1.20;;;;;;;12.69;100.00;101916.88;5036394;28;20054;-85
2022/10/06 00:55:21;;;;;;;12.55;1.23;;;;;;;12.80;100.00;101936.22;5028998;28;20179;-85
2022/10/06 00:57:48;;;;;;;6.38;1.45;;;;;;;12.81;100.00;101932.50;5037435;28;20036;-85
2022/10/06 01:00:14;;;;;;;11.23;1.15;;;;;;;12.81;100.00;101940.75;5054592;28;20072;-85
2022/10/06 01:02:47;;;;;;;8.73;1.23;;;;;;;12.85;100.00;101942.28;5024287;28;20029;-84
2022/10/06 01:05:19;;;;;;;11.43;1.10;;;;;;;12.89;100.00;101951.19;5053978;28;20033;-85
2022/10/06 01:07:45;;;;;;;10.57;1.45;;;;;;;12.84;100.00;101951.53;5071635;28;20025;-85
2022/10/06 01:10:10;;;;;;;14.05;1.17;;;;;;;12.77;100.00;101949.31;5010002;28;20049;-85
2022/10/06 01:12:36;;;;;;;14.55;1.10;;;;;;;12.77;100.00;101954.81;5056597;28;20033;-85
2022/10/06 01:15:03;;;;;;;9.05;1.40;;;;;;;12.79;100.00;101955.56;5054097;28;20033;-85
2022/10/06 01:17:44;;;;;;;9.52;1.00;;;;;;;12.76;100.00;101969.56;5021688;28;20175;-85
2022/10/06 01:20:14;;;;;;;13.45;1.60;;;;;;;12.74;100.00;101964.16;5044836;28;20498;-85
2022/10/06 01:23:08;;;;;;;13.50;1.42;;;;;;;12.67;100.00;101974.72;5035831;28;20159;-86
2022/10/06 01:25:35;;;;;;;7.32;1.42;;;;;;;12.67;100.00;101973.81;5049512;28;20052;-85
2022/10/06 01:28:04;;;;;;;5.93;0.88;;;;;;;12.73;100.00;101983.50;5047345;28;20021;-86
2022/10/06 01:30:49;;;;;;;7.13;1.45;;;;;;;12.71;100.00;101986.34;5058621;28;20043;-85
2022/10/06 01:33:15;;;;;;;16.15;1.27;;;;;;;12.70;100.00;101990.09;5057937;28;20556;-86
2022/10/06 01:35:42;;;;;;;8.38;0.88;;;;;;;12.69;100.00;102002.94;5055145;28;20481;-85
2022/10/06 01:38:08;;;;;;;8.75;0.93;;;;;;;12.70;100.00;101992.84;5041852;28;20029;-85
2022/10/06 01:40:33;;;;;;;10.30;1.38;;;;;;;12.76;100.00;102002.53;5042660;28;20378;-85
2022/10/06 01:42:59;;;;;;;9.35;1.13;;;;;;;12.70;100.00;102003.81;5057643;28;20574;-85
2022/10/06 01:45:24;;;;;;;6.93;1.33;;;;;;;12.69;100.00;102013.94;5028910;28;20028;-84
2022/10/06 01:47:50;;;;;;;9.25;1.08;;;;;;;12.75;100.00;102015.38;5029378;28;20096;-85
2022/10/06 01:50:15;;;;;;;8.43;1.05;;;;;;;12.74;100.00;102001.72;5011419;28;20044;-84
2022/10/06 01:52:41;;;;;;;14.35;1.40;;;;;;;12.75;100.00;102020.00;5042417;28;20048;-85
2022/10/06 01:55:07;;;;;;;7.00;1.10;;;;;;;12.63;100.00;102013.50;5028427;28;20560;-85
2022/10/06 01:57:40;;;;;;;7.95;1.00;;;;;;;12.68;100.00;102022.28;5029487;28;20049;-85
2022/10/06 02:00:07;;;;;;;12.23;1.52;;;;;;;12.55;100.00;102007.66;5058502;28;20040;-87
2022/10/06 02:02:32;;;;;;;16.23;1.23;;;;;;;12.62;100.00;102029.06;5058381;28;20037;-86
2022/10/06 02:04:58;;;;;;;12.25;1.48;;;;;;;12.62;100.00;102033.69;5040646;28;20071;-86
2022/10/06 02:07:23;;;;;;;11.43;1.48;;;;;;;12.56;100.00;102028.63;5059733;28;20029;-86
2022/10/06 02:09:49;;;;;;;9.60;1.10;;;;;;;12.60;100.00;102024.69;5027014;28;20092;-86
2022/10/06 02:12:14;;;;;;;10.13;1.17;;;;;;;12.72;100.00;102034.81;5027101;28;20029;-85
2022/10/06 02:14:40;;;;;;;11.65;1.13;;;;;;;12.57;100.00;102034.00;5045339;28;20028;-85
2022/10/06 02:17:06;;;;;;;6.97;1.05;;;;;;;12.53;100.00;102037.97;5043779;28;20481;-85
2022/10/06 02:19:31;;;;;;;18.98;1.52;;;;;;;12.58;100.00;102054.16;5055529;28;20052;-86
2022/10/06 02:21:57;;;;;;;18.58;1.80;;;;;;;12.52;100.00;102049.94;5044823;28;20048;-86
2022/10/06 02:24:23;;;;;;;13.05;1.20;;;;;;;12.36;100.00;102039.09;5024519;28;20037;-86
2022/10/06 02:26:48;;;;;;;8.55;1.17;;;;;;;12.37;100.00;102060.09;5042112;28;20052;-86
2022/10/06 02:29:14;;;;;;;17.10;1.40;;;;;;;12.35;100.00;102055.69;5045625;28;20432;-86
2022/10/06 02:31:39;;;;;;;8.65;1.08;;;;;;;12.34;100.00;102071.28;5027639;28;20492;-86
2022/10/06 02:34:05;;;;;;;11.65;1.20;;;;;;;12.16;100.00;102053.31;5026636;28;20037;-86
2022/10/06 02:36:31;;;;;;;12.85;1.30;;;;;;;12.25;100.00;102075.53;5040992;28;20488;-85
2022/10/06 02:38:56;;;;;;;7.45;1.35;;;;;;;12.23;100.00;102082.09;5025118;28;20428;-85
2022/10/06 02:41:22;;;;;;;12.05;1.77;;;;;;;12.23;100.00;102077.53;5042068;28;20083;-84
2022/10/06 02:43:47;;;;;;;14.70;1.70;;;;;;;12.18;100.00;102082.41;5042416;28;20060;-85
2022/10/06 02:46:13;;;;;;;7.22;1.13;;;;;;;12.16;100.00;102095.38;5056070;28;20034;-85
2022/10/06 02:48:40;;;;;;;8.40;1.00;;;;;;;12.06;100.00;102084.09;5041930;28;20065;-85
2022/10/06 02:51:11;;;;;;;7.75;1.20;;;;;;;12.10;100.00;102098.50;5043282;28;20041;-85
2022/10/06 02:53:38;;;;;;;13.60;1.42;;;;;;;12.05;100.00;102101.56;5040675;28;20040;-85
2022/10/06 02:56:07;;;;;;;14.15;1.30;;;;;;;12.00;100.00;102103.72;5058855;28;20452;-85
2022/10/06 02:58:33;;;;;;;13.02;1.10;;;;;;;11.99;100.00;102112.06;5042000;28;20170;-85
2022/10/06 03:01:07;;;;;;;10.68;1.20;;;;;;;11.89;100.00;102107.13;5043020;28;20037;-85
2022/10/06 03:03:34;;;;;;;14.30;1.73;;;;;;;11.93;100.00;102111.47;5044776;28;20041;-85
2022/10/06 03:06:20;;;;;;;9.05;0.98;;;;;;;11.86;100.00;102120.19;5060033;28;20071;-85
2022/10/06 03:08:57;;;;;;;8.93;1.63;;;;;;;11.88;100.00;102134.69;5042390;28;20036;-85
2022/10/06 03:11:27;;;;;;;9.27;1.10;;;;;;;11.84;100.00;102135.84;5040728;28;20049;-86
2022/10/06 03:13:53;;;;;;;11.68;1.17;;;;;;;11.84;100.00;102153.22;5043032;28;20033;-85
2022/10/06 03:16:21;;;;;;;9.60;1.10;;;;;;;11.81;100.00;102145.16;5040803;28;20043;-85
2022/10/06 03:18:48;;;;;;;15.23;2.45;;;;;;;11.81;100.00;102145.16;5057693;28;20075;-85
2022/10/06 03:21:35;;;;;;;11.68;1.42;;;;;;;11.75;100.00;102140.06;5021873;28;20037;-85
2022/10/06 03:24:01;;;;;;;11.55;1.33;;;;;;;11.70;100.00;102145.84;5057699;28;20024;-85
2022/10/06 03:26:34;;;;;;;23.33;2.58;;;;;;;11.70;100.00;102159.56;5042673;28;20040;-84
2022/10/06 03:29:00;;;;;;;12.70;1.35;;;;;;;11.66;100.00;102157.09;5057671;28;20063;-85
2022/10/06 03:31:26;;;;;;;11.25;1.27;;;;;;;11.60;100.00;102152.88;5059506;28;20040;-85
2022/10/06 03:34:01;;;;;;;12.18;1.40;;;;;;;11.58;100.00;102161.22;5040678;28;20227;-86
2022/10/06 03:36:31;;;;;;;12.20;1.27;;;;;;;11.54;100.00;102166.97;5013436;28;20036;-86
2022/10/06 03:38:57;;;;;;;7.95;1.33;;;;;;;11.55;100.00;102166.00;5056322;28;20522;-86
2022/10/06 03:41:25;;;;;;;11.00;1.10;;;;;;;11.59;100.00;102176.72;5043120;28;20119;-85
2022/10/06 03:43:52;;;;;;;10.13;1.48;;;;;;;11.49;100.00;102180.97;5043381;28;20036;-85
2022/10/06 03:46:22;;;;;;;16.50;1.95;;;;;;;11.53;100.00;102187.19;5022636;28;20155;-85
2022/10/06 03:48:49;;;;;;;15.73;1.20;;;;;;;11.46;100.00;102189.44;5039651;28;20437;-85
2022/10/06 03:51:24;;;;;;;18.85;2.50;;;;;;;11.48;100.00;102189.28;5024367;28;20072;-85
2022/10/06 03:53:50;;;;;;;13.75;1.42;;;;;;;11.56;100.00;102197.97;5041568;28;20029;-86
2022/10/06 03:56:30;;;;;;;15.73;1.38;;;;;;;11.51;100.00;102205.56;5026934;28;20090;-85
2022/10/06 03:58:58;;;;;;;13.75;2.15;;;;;;;11.44;100.00;102196.84;5039523;28;20362;-86
2022/10/06 04:01:27;;;;;;;18.50;1.77;;;;;;;11.43;100.00;102208.81;5042754;28;20031;-86
2022/10/06 04:03:54;;;;;;;10.75;1.63;;;;;;;11.45;100.00;102214.19;5056110;28;20472;-86
2022/10/06 04:06:20;;;;;;;17.02;1.60;;;;;;;11.42;100.00;102225.34;5037436;28;20030;-86
2022/10/06 04:08:47;;;;;;;15.38;1.45;;;;;;;11.49;100.00;102221.25;5040125;28;20031;-87
2022/10/06 04:11:14;;;;;;;13.07;1.38;;;;;;;11.34;100.00;102221.19;5054666;28;20049;-86
2022/10/06 04:13:42;;;;;;;14.90;1.35;;;;;;;11.30;100.00;102225.13;5053156;28;20040;-87
2022/10/06 04:16:21;;;;;;;18.90;2.00;;;;;;;11.31;100.00;102234.22;5053216;28;20044;-86
2022/10/06 04:18:53;;;;;;;15.55;1.75;;;;;;;11.22;100.00;102227.44;5039250;28;20028;-86
2022/10/06 04:21:19;;;;;;;20.08;1.58;;;;;;;11.18;100.00;102242.28;5040869;28;20036;-87
2022/10/06 04:23:44;;;;;;;20.15;1.77;;;;;;;11.23;100.00;102251.09;5041514;28;20119;-86
2022/10/06 04:26:13;;;;;;;19.67;1.45;;;;;;;11.14;100.00;102251.69;5055446;28;20122;-83
2022/10/06 04:28:41;;;;;;;15.02;1.48;;;;;;;11.08;100.00;102246.56;5056040;28;20117;-86
2022/10/06 04:31:15;;;;;;;18.52;2.50;;;;;;;11.00;100.00;102255.22;5057484;28;20032;-87
2022/10/06 04:33:41;;;;;;;12.73;1.40;;;;;;;10.83;100.00;102243.38;5054356;28;20100;-86
2022/10/06 04:36:09;;;;;;;16.92;1.77;;;;;;;11.03;100.00;102258.69;5054458;28;20041;-87
2022/10/06 04:38:35;;;;;;;18.88;1.80;;;;;;;10.96;100.00;102261.88;5058203;28;20051;-86
2022/10/06 04:41:05;;;;;;;23.13;1.75;;;;;;;10.94;100.00;102267.44;5041538;28;20025;-86
2022/10/06 04:43:32;;;;;;;17.77;1.98;;;;;;;10.89;100.00;102260.44;5051247;28;20044;-86
2022/10/06 04:45:58;;;;;;;16.15;1.98;;;;;;;10.97;100.00;102282.78;5057182;28;20043;-86
2022/10/06 04:48:28;;;;;;;16.38;1.48;;;;;;;10.85;100.00;102273.44;5028196;28;20021;-86
2022/10/06 04:50:59;;;;;;;16.52;1.70;;;;;;;10.77;100.00;102275.72;5040964;28;20039;-87
2022/10/06 04:53:25;;;;;;;14.98;2.38;;;;;;;10.73;100.00;102279.63;5037748;28;20088;-87
2022/10/06 04:56:12;;;;;;;18.33;2.33;;;;;;;10.74;100.00;102286.84;5039439;28;20036;-86
2022/10/06 04:58:40;;;;;;;18.13;1.83;;;;;;;10.71;100.00;102281.53;5057619;28;20029;-86
2022/10/06 05:01:33;;;;;;;18.77;2.15;;;;;;;10.71;100.00;102285.19;5071034;28;20029;-87
2022/10/06 05:04:00;;;;;;;;;;;;;;;10.71;100.00;102287.03;5040676;28;20053;-86
2022/10/06 05:06:34;;;;;;;19.02;2.40;;;;;;;10.68;100.00;102301.78;5044675;28;19921;-85
2022/10/06 05:09:01;;;;;;;22.77;1.70;;;;;;;10.66;100.00;102301.00;5054768;28;20017;-85
2022/10/06 05:11:28;;;;;;;16.77;2.22;;;;;;;10.64;100.00;102309.31;5059954;28;21266;-86
2022/10/06 05:13:55;;;;;;;15.38;2.08;;;;;;;10.68;100.00;102320.09;5055896;28;20025;-86
2022/10/06 05:16:21;;;;;;;24.80;2.63;;;;;;;10.52;100.00;102307.25;5055542;28;20063;-86
2022/10/06 05:18:47;;;;;;;20.38;2.22;;;;;;;10.57;100.00;102318.81;5056014;28;20528;-85
2022/10/06 05:21:16;;;;;;;23.25;2.50;;;;;;;10.63;100.00;102328.56;5060548;28;20068;-85
2022/10/06 05:23:42;;;;;;;24.85;2.65;;;;;;;10.59;100.00;102338.81;5056991;28;20060;-85
2022/10/06 05:26:10;;;;;;;15.77;2.00;;;;;;;10.54;100.00;102338.16;5042570;28;20127;-84
2022/10/06 05:28:36;;;;;;;10.30;1.70;;;;;;;10.55;100.00;102337.19;5038922;28;20037;-84
2022/10/06 05:31:21;;;;;;;18.55;2.38;;;;;;;10.52;100.00;102344.72;5043024;28;21743;-84
2022/10/06 05:33:46;;;;;;;27.48;2.13;;;;;;;10.38;100.00;102331.75;5043215;28;20056;-85
2022/10/06 05:36:15;;;;;;;18.30;3.25;;;;;;;10.46;100.00;102352.28;5041862;28;20040;-85
2022/10/06 05:38:42;;;;;;;22.35;1.90;;;;;;;10.38;100.00;102357.31;5041270;28;20033;-85
2022/10/06 05:41:18;;;;;;;16.63;1.92;;;;;;;10.34;100.00;102363.91;5043451;28;20029;-86
2022/10/06 05:43:45;;;;;;;21.73;2.05;;;;;;;10.37;100.00;102366.47;5042373;28;20530;-85
2022/10/06 05:46:18;;;;;;;17.27;1.63;;;;;;;10.34;100.00;102372.09;5043969;28;20040;-86
2022/10/06 05:48:49;;;;;;;22.45;2.00;;;;;;;10.33;100.00;102370.34;5043191;28;20537;-86
2022/10/06 05:51:15;;;;;;;25.05;2.78;;;;;;;10.22;100.00;102370.88;5059843;28;20028;-86
2022/10/06 05:53:41;;;;;;;13.68;1.73;;;;;;;10.21;100.00;102365.50;5026175;28;20059;-87
2022/10/06 05:56:09;;;;;;;21.65;3.28;;;;;;;10.15;100.00;102361.25;5059036;28;20040;-86
2022/10/06 05:58:37;;;;;;;24.98;2.13;;;;;;;10.17;100.00;102377.59;5043130;28;20060;-86
2022/10/06 06:01:16;;;;;;;26.17;3.30;;;;;;;10.23;100.00;102390.94;5059619;28;20033;-86
2022/10/06 06:03:46;;;;;;;22.45;1.92;;;;;;;10.21;100.00;102392.88;5075317;28;20036;-86
2022/10/06 06:06:21;;;;;;;18.95;2.00;;;;;;;10.17;100.00;102389.41;5053251;28;20030;-85
2022/10/06 06:08:50;;;;;;;15.38;1.85;;;;;;;10.18;100.00;102393.91;5066177;28;20045;-84
2022/10/06 06:11:15;;;;;;;16.52;2.63;;;;;;;10.19;100.00;102394.81;5042168;28;20044;-85
2022/10/06 06:13:41;;;;;;;22.77;2.05;;;;;;;10.12;100.00;102392.38;5023633;28;20046;-86
2022/10/06 06:16:14;;;;;;;17.30;2.08;;;;;;;10.16;100.00;102408.66;5055269;28;20124;-85
2022/10/06 06:18:40;;;;;;;25.38;2.47;;;;;;;10.17;100.00;102413.16;5044835;28;20029;-86
2022/10/06 06:21:07;;;;;;;18.67;2.22;;;;;;;10.21;100.00;102414.75;5027741;28;20028;-86
2022/10/06 06:23:38;;;;;;;17.50;2.53;;;;;;;10.16;100.00;102411.38;5055549;28;20244;-85
2022/10/06 06:26:08;;;;;;;24.05;1.95;;;;;;;10.20;100.00;102413.88;5046662;28;20472;-83
2022/10/06 06:28:35;;;;;;;18.02;2.35;;;;;;;10.20;100.00;102413.88;5048038;28;20028;-85
2022/10/06 06:31:16;;;;;;;26.70;1.92;;;;;;;10.28;100.00;102425.31;5060342;28;20045;-86
2022/10/06 06:33:42;;;;;;;20.10;2.15;;;;;;;10.37;100.00;102418.50;5044911;28;20039;-86
2022/10/06 06:36:27;;;;;;;18.17;2.03;;;;;;;10.38;100.00;102414.81;5055055;28;20481;-85
2022/10/06 06:38:57;;;;;;;18.48;2.13;;;;;;;10.59;100.00;102431.03;5050617;28;20508;-86
2022/10/06 06:41:25;;;;;;;20.80;1.90;;;;;;;10.70;100.00;102438.69;5025170;28;20575;-87
2022/10/06 06:43:54;;;;;;;16.48;1.90;;;;;;;10.90;100.00;102434.84;5045402;28;20038;-86
2022/10/06 06:46:25;;;;;;;14.43;2.30;;;;;;;10.68;100.00;102441.50;5027713;28;20163;-86
2022/10/06 06:48:51;;;;;;;16.70;1.92;;;;;;;10.87;100.00;102446.88;5064726;28;20029;-85
2022/10/06 06:51:21;;;;;;;19.15;2.17;;;;;;;10.77;100.00;102443.75;5060350;28;20036;-86
2022/10/06 06:53:47;;;;;;;22.83;2.67;;;;;;;11.16;100.00;102455.31;5029603;28;20433;-86
2022/10/06 06:56:12;;;;;;;20.00;1.90;;;;;;;11.27;100.00;102462.97;5062533;28;20116;-86
2022/10/06 06:58:38;;;;;;;27.20;2.45;;;;;;;11.01;100.00;102459.81;5025063;28;20542;-86
2022/10/06 07:01:06;;;;;;;21.38;2.53;;;;;;;11.23;100.00;102454.00;5039972;28;20040;-86
2022/10/06 07:03:31;;;;;;;13.18;2.40;;;;;;;11.05;100.00;102464.13;5058635;28;20025;-85
2022/10/06 07:06:10;;;;;;;22.52;2.40;;;;;;;11.25;100.00;102464.88;5043228;28;20033;-86
2022/10/06 07:08:41;;;;;;;20.50;2.22;;;;;;;11.36;100.00;102471.56;5036331;28;20048;-86
2022/10/06 07:11:15;;;;;;;27.35;2.42;;;;;;;11.20;100.00;102476.13;5064253;28;20045;-86
2022/10/06 07:13:41;;;;;;;22.33;2.78;;;;;;;11.07;100.00;102473.19;5054691;28;20036;-86
2022/10/06 07:27:09;;;;;;;22.90;2.33;;;;;;;11.58;100.00;102517.84;5046269;28;20048;-84
2022/10/06 07:29:34;;;;;;;22.30;2.15;;;;;;;11.77;100.00;102519.53;5042265;28;20041;-84
2022/10/06 07:32:00;;;;;;;15.70;1.98;;;;;;;11.69;100.00;102524.56;5026071;28;20021;-85
2022/10/06 07:34:26;;;;;;;24.20;2.00;;;;;;;11.89;100.00;102518.84;5010182;28;20033;-85
2022/10/06 07:36:53;;;;;;;20.48;2.40;;;;;;;11.95;100.00;102514.88;5025525;28;20099;-85
2022/10/06 07:39:21;;;;;;;28.90;2.05;;;;;;;12.16;100.00;102520.97;5058114;28;20044;-84
2022/10/06 07:41:47;;;;;;;23.50;2.22;;;;;;;12.30;100.00;102532.03;5039806;28;20104;-84
2022/10/06 07:44:12;;;;;;;17.50;2.30;;;;;;;12.28;100.00;102527.59;5045418;28;20076;-85
2022/10/06 07:46:37;;;;;;;22.90;2.42;;;;;;;12.56;100.00;102543.31;5028009;28;20056;-85
2022/10/06 07:49:03;;;;;;;21.38;2.70;;;;;;;12.38;100.00;102519.69;5028108;28;20028;-85
2022/10/06 07:51:28;;;;;;;22.48;2.13;;;;;;;12.57;100.00;102550.56;5027145;28;20029;-85
2022/10/06 07:53:54;;;;;;;25.45;2.03;;;;;;;12.54;100.00;102550.75;5044080;28;20025;-85
2022/10/06 07:56:19;;;;;;;25.30;2.13;;;;;;;12.65;100.00;102553.72;5042873;28;20036;-85
2022/10/06 07:58:46;;;;;;;23.98;1.90;;;;;;;12.54;100.00;102549.88;5044481;28;20036;-85
2022/10/06 08:01:13;;;;;;;14.45;1.77;;;;;;;13.12;100.00;102556.38;5043071;28;20058;-84
2022/10/06 08:03:40;;;;;;;23.77;3.05;;;;;;;13.01;100.00;102565.31;5026191;28;20033;-85
2022/10/06 08:06:11;;;;;;;19.40;2.25;;;;;;;13.23;100.00;102573.09;5042171;28;20050;-84
2022/10/06 08:08:37;;;;;;;24.13;2.47;;;;;;;13.42;100.00;102572.88;5076077;28;20128;-84
2022/10/06 08:11:04;;;;;;;24.63;2.72;;;;;;;13.71;100.00;102582.00;5042855;28;20146;-85
2022/10/06 08:13:32;;;;;;;24.33;2.50;;;;;;;14.33;100.00;102584.34;5060642;28;20039;-85
2022/10/06 08:16:05;;;;;;;22.92;2.28;;;;;;;14.15;100.00;102585.59;5060832;28;20028;-85
2022/10/06 08:18:30;;;;;;;20.23;1.70;;;;;;;13.94;100.00;102577.75;5059992;28;20035;-85
2022/10/06 08:20:57;;;;;;;23.52;2.47;;;;;;;13.79;100.00;102585.16;5041513;28;20029;-85
2022/10/06 08:23:23;;;;;;;19.80;2.50;;;;;;;13.99;100.00;102588.47;5042323;28;20036;-84
2022/10/06 08:25:50;;;;;;;17.60;2.72;;;;;;;14.58;100.00;102584.56;5059986;28;20556;-84
2022/10/06 08:28:16;;;;;;;21.95;2.47;;;;;;;15.05;100.00;102586.81;5043173;28;20060;-85
2022/10/06 08:30:42;;;;;;;16.35;1.90;;;;;;;15.02;100.00;102578.75;5059870;28;20142;-84
2022/10/06 08:33:07;;;;;;;23.50;2.00;;;;;;;15.09;100.00;102586.59;5043029;28;20037;-85
2022/10/06 08:35:34;;;;;;;22.77;2.35;;;;;;;14.95;100.00;102590.31;5059662;28;20025;-86
2022/10/06 08:38:00;;;;;;;15.02;2.55;;;;;;;15.88;100.00;102591.00;5042894;28;20025;-85
2022/10/06 08:40:27;;;;;;;19.02;2.15;;;;;;;15.95;100.00;102600.63;5028781;28;20036;-85
2022/10/06 08:42:55;;;;;;;20.58;2.20;;;;;;;15.86;100.00;102603.19;5028892;28;20041;-85
2022/10/06 08:45:37;;;;;;;15.40;2.08;;;;;;;15.70;100.00;102608.91;5045041;28;20005;-85
2022/10/06 08:48:06;;;;;;;26.92;2.42;;;;;;;15.71;100.00;102611.56;5060827;28;20037;-85
2022/10/06 08:50:42;;;;;;;17.67;1.83;;;;;;;15.95;100.00;102614.44;5042356;28;20036;-85
2022/10/06 08:53:29;;;;;;;18.80;2.13;;;;;;;15.72;100.00;102615.19;5042962;28;20488;-85
2022/10/06 08:56:16;;;;;;;18.27;2.05;;;;;;;15.67;100.00;102617.41;5047471;28;20033;-84
2022/10/06 08:59:03;;;;;;;18.48;2.22;;;;;;;15.69;100.00;102629.22;5062192;28;20086;-84
2022/10/06 09:01:38;;;;;;;26.90;2.30;;;;;;;16.23;100.00;102631.72;5046008;28;20383;-85
2022/10/06 09:04:06;;;;;;;15.73;2.47;;;;;;;16.41;100.00;102628.56;5064056;28;20033;-86
2022/10/06 09:06:58;;;;;;;15.55;2.72;;;;;;;16.45;100.00;102639.28;5040387;28;20040;-86
2022/10/06 09:09:45;;;;;;;16.53;2.37;;;;;;;16.46;100.00;102645.69;5051880;28;20415;-86
2022/10/06 09:12:26;;;;;;;21.88;2.38;;;;;;;16.99;100.00;102649.03;5080186;28;20333;-86
2022/10/06 09:15:06;;;;;;;12.65;2.45;;;;;;;16.94;100.00;102644.84;5061993;28;20477;-86
2022/10/06 09:17:41;;;;;;;18.92;2.30;;;;;;;16.57;100.00;102644.88;5044161;28;20401;-86
2022/10/06 09:20:19;;;;;;;18.77;1.60;;;;;;;16.86;100.00;102645.44;5042945;28;20025;-86
2022/10/06 09:22:47;;;;;;;10.40;1.70;;;;;;;17.03;100.00;102647.78;5045571;28;20028;-86
2022/10/06 09:25:16;;;;;;;14.98;1.60;;;;;;;16.54;100.00;102657.94;5079623;28;20029;-85
2022/10/06 09:27:49;;;;;;;11.95;1.83;;;;;;;17.21;100.00;102656.53;5079654;28;20025;-85
2022/10/06 09:30:15;;;;;;;17.45;1.67;;;;;;;16.73;100.00;102656.53;5063790;28;20384;-85
2022/10/06 09:32:46;;;;;;;12.90;1.63;;;;;;;16.93;100.00;102660.56;5034679;28;20022;-85
2022/10/06 09:35:21;;;;;;;16.05;1.60;;;;;;;17.15;100.00;102656.13;5027170;28;20025;-86
2022/10/06 09:37:56;;;;;;;10.82;1.42;;;;;;;17.52;100.00;102669.84;5044439;28;20081;-85
2022/10/06 09:40:38;;;;;;;14.50;1.55;;;;;;;17.25;100.00;102668.25;5044820;28;20025;-84
2022/10/06 09:43:31;;;;;;;12.85;1.50;;;;;;;17.61;100.00;102671.84;5047072;28;20108;-84
2022/10/06 09:46:19;;;;;;;13.57;1.58;;;;;;;17.86;100.00;102670.78;5058628;28;20029;-85
2022/10/06 09:48:44;;;;;;;18.17;2.42;;;;;;;17.82;100.00;102674.78;5047073;28;20037;-84
2022/10/06 09:51:14;;;;;;;10.95;1.42;;;;;;;17.25;100.00;102674.66;5033759;28;20025;-84
2022/10/06 09:54:09;;;;;;;10.38;1.55;;;;;;;18.07;100.00;102673.72;5047614;28;20135;-85
2022/10/06 09:56:39;;;;;;;13.05;1.88;;;;;;;17.78;100.00;102670.50;5046888;28;20125;-86
2022/10/06 09:59:14;;;;;;;9.38;1.13;;;;;;;17.04;100.00;102676.34;5063163;28;20112;-84
2022/10/06 10:01:40;;;;;;;10.88;1.38;;;;;;;17.31;100.00;102677.97;5063789;28;20029;-84
2022/10/06 10:04:11;;;;;;;10.65;1.40;;;;;;;17.86;100.00;102680.97;5030840;28;20032;-85
2022/10/06 10:06:37;;;;;;;13.77;1.40;;;;;;;17.47;100.00;102680.41;5063653;28;20044;-85
2022/10/06 10:09:18;;;;;;;11.02;1.30;;;;;;;18.03;100.00;102686.06;5046306;28;20072;-85
2022/10/06 10:14:37;;;;;;;16.48;1.77;;;;;;;17.35;100.00;102683.13;5063301;28;20044;-86
2022/10/06 10:17:16;;;;;;;18.67;1.77;;;;;;;17.44;100.00;102682.38;5031562;28;20021;-85
2022/10/06 10:19:43;;;;;;;16.08;1.38;;;;;;;17.47;100.00;102667.44;5048324;28;20013;-86
2022/10/06 10:22:22;;;;;;;10.43;1.10;;;;;;;17.92;100.00;102681.41;5046822;28;20027;-86
2022/10/06 10:25:14;;;;;;;12.55;1.40;;;;;;;18.15;100.00;102679.50;5043159;28;20044;-85
2022/10/06 10:27:56;;;;;;;9.07;1.35;;;;;;;18.09;100.00;102685.56;5043793;28;20021;-85
2022/10/06 10:30:23;;;;;;;6.20;1.23;;;;;;;17.78;100.00;102695.44;5043572;28;20040;-85
2022/10/06 10:33:10;;;;;;;11.13;1.50;;;;;;;17.59;100.00;102687.72;5044437;28;20026;-84
2022/10/06 10:35:41;;;;;;;7.72;1.00;;;;;;;17.75;100.00;102679.94;5043942;28;20033;-85
2022/10/06 10:38:11;;;;;;;15.23;1.60;;;;;;;18.10;100.00;102680.88;5061881;28;20033;-86
2022/10/06 10:40:50;;;;;;;8.45;1.10;;;;;;;18.03;100.00;102680.50;5066239;28;20048;-85
2022/10/06 10:43:39;;;;;;;10.45;1.20;;;;;;;17.88;100.00;102690.09;5048218;28;20021;-86
2022/10/06 10:46:26;;;;;;;6.53;1.10;;;;;;;17.89;100.00;102695.50;5047591;28;20036;-85
2022/10/06 10:49:12;;;;;;;8.70;1.20;;;;;;;17.97;100.00;102689.31;5047814;28;20021;-84
2022/10/06 10:51:48;;;;;;;11.02;1.25;;;;;;;17.35;100.00;102687.78;5047888;28;20146;-85
2022/10/06 10:54:32;;;;;;;9.18;1.10;;;;;;;17.01;100.00;102698.72;5078711;28;20365;-85
2022/10/06 10:56:58;;;;;;;11.23;1.13;;;;;;;17.38;100.00;102691.22;5062849;28;20025;-86
2022/10/06 10:59:33;;;;;;;14.60;1.45;;;;;;;17.35;100.00;102696.06;5029328;28;20388;-86
2022/10/06 11:02:20;;;;;;;10.40;1.27;;;;;;;17.46;100.00;102701.66;5046206;28;20178;-87
2022/10/06 11:04:49;;;;;;;9.63;0.90;;;;;;;17.35;100.00;102685.91;5045659;28;20025;-85
2022/10/06 11:07:47;;;;;;;8.63;1.55;;;;;;;17.13;100.00;102702.44;5059081;28;20029;-85
2022/10/06 11:10:20;;;;;;;8.07;0.82;;;;;;;17.67;100.00;102689.88;5065805;28;20080;-86
2022/10/06 11:13:00;;;;;;;9.05;1.08;;;;;;;17.74;100.00;102700.38;5064275;28;20032;-86
2022/10/06 11:16:04;;;;;;;5.35;0.98;;;;;;;17.60;100.00;102693.13;5062807;28;20037;-86
2022/10/06 11:18:32;;;;;;;9.00;1.15;;;;;;;17.63;100.00;102692.03;5045884;28;20020;-85
2022/10/06 11:21:12;;;;;;;7.93;1.02;;;;;;;17.68;100.00;102689.75;5061164;28;20067;-85
2022/10/06 11:23:53;;;;;;;6.47;0.70;;;;;;;17.98;100.00;102693.88;5041849;28;20017;-85
2022/10/06 11:26:50;;;;;;;7.50;1.17;;;;;;;17.88;100.00;102690.97;5043848;28;20032;-85
2022/10/06 11:29:45;;;;;;;6.43;0.88;;;;;;;17.68;100.00;102697.19;5059726;28;20057;-86
2022/10/06 11:32:32;;;;;;;6.53;0.90;;;;;;;17.82;100.00;102689.53;5026934;28;20033;-84
2022/10/06 11:34:58;;;;;;;8.80;1.17;;;;;;;17.74;100.00;102691.16;5026773;28;20079;-84
2022/10/06 11:37:46;;;;;;;4.35;0.85;;;;;;;17.74;100.00;102696.69;5058108;28;20044;-84
2022/10/06 11:40:18;;;;;;;6.82;0.90;;;;;;;17.79;100.00;102691.66;5063490;28;20067;-85
2022/10/06 11:43:08;;;;;;;6.25;0.82;;;;;;;17.88;100.00;102699.28;5061472;28;20033;-85